^^
Station Historical Data
Daily Summary for August 25, 2017 Units:  English    Metric   Both
« Previous Day
Next Day »
Daily Weekly Monthly Yearly Custom
  High: Low: Average:
Temperature: 75.6 °F 59.3 °F 67.1 °F
Dew Point: 60.0 °F 53.5 °F 56.2 °F
Humidity: 87% 48% 69%
Wind Speed: 5.0mph 0.0mph 0.6mph
Wind Gust: 12.0mph - -
Wind- - WSW
Pressure: 30.20 in 29.99 in -
Precipitation: 0.00 in    
Historical Graphs
 
 
Tabular Data for August 25, 2017
Time Temperature Dew Point Pressure Wind Wind Speed Wind Gust Humidity Rainfall Rate (Hourly) Conditions
00:00 62.7 °F 55.4 °F 29.99 in Calm   1.0 mph 77% 0.00 in FEW
00:15 62.5 °F 55.5 °F 29.99 in Calm   2.0 mph 78% 0.00 in CLR
00:30 62.7 °F 55.7 °F 30.00 in Calm   1.0 mph 78% 0.00 in CLR
00:45 62.6 °F 55.6 °F 30.00 in Calm   1.0 mph 78% 0.00 in CLR
02:15 63.3 °F 54.9 °F 30.01 in Calm   3.0 mph 74% 0.00 in FEW
02:30 63.9 °F 55.4 °F 30.01 in Calm   5.0 mph 74% 0.00 in FEW
02:45 63.8 °F 55.0 °F 30.02 in Calm   3.0 mph 73% 0.00 in FEW
03:00 63.5 °F 55.1 °F 30.02 in Calm   7.0 mph 74% 0.00 in FEW
03:15 62.9 °F 54.8 °F 30.02 in Calm   7.0 mph 75% 0.00 in BKN
03:30 62.4 °F 54.7 °F 30.02 in Calm   3.0 mph 76% 0.00 in BKN
03:45 61.9 °F 54.9 °F 30.02 in Calm   2.0 mph 78% 0.00 in BKN
04:00 61.4 °F 55.2 °F 30.03 in Calm   3.0 mph 80% 0.00 in BKN
04:15 60.7 °F 55.2 °F 30.03 in Calm   1.0 mph 82% 0.00 in OVC
04:30 60.8 °F 55.3 °F 30.03 in Calm   1.0 mph 82% 0.00 in OVC
04:45 60.7 °F 55.5 °F 30.03 in Calm   1.0 mph 83% 0.00 in OVC
05:00 60.2 °F 55.4 °F 30.04 in Calm   1.0 mph 84% 0.00 in OVC
05:15 59.6 °F 55.0 °F 30.04 in Calm     85% 0.00 in CLR
05:30 59.5 °F 55.0 °F 30.05 in Calm   1.0 mph 85% 0.00 in CLR
05:45 59.6 °F 55.1 °F 30.05 in Calm   1.0 mph 85% 0.00 in CLR
06:00 59.5 °F 55.0 °F 30.05 in Calm   1.0 mph 85% 0.00 in CLR
06:15 59.5 °F 55.4 °F 30.06 in Calm   2.0 mph 86% 0.00 in CLR
06:30 59.7 °F 55.5 °F 30.07 in Calm   2.0 mph 86% 0.00 in CLR
06:45 59.3 °F 55.1 °F 30.07 in Calm     86% 0.00 in CLR
07:00 59.6 °F 55.8 °F 30.07 in NNW 1.0 mph 3.0 mph 87% 0.00 in CLR
07:15 60.2 °F 55.7 °F 30.08 in Calm   2.0 mph 85% 0.00 in FEW
07:30 60.4 °F 55.9 °F 30.08 in Calm   2.0 mph 85% 0.00 in FEW
07:45 60.9 °F 56.0 °F 30.08 in NNE 1.0 mph 5.0 mph 84% 0.00 in FEW
08:00 61.4 °F 56.2 °F 30.09 in North 1.0 mph 5.0 mph 83% 0.00 in FEW
08:15 61.9 °F 56.4 °F 30.09 in NNW 1.0 mph 5.0 mph 82% 0.00 in FEW
08:30 62.9 °F 56.6 °F 30.09 in NNW 1.0 mph 5.0 mph 80% 0.00 in FEW
08:45 64.4 °F 57.0 °F 30.09 in NE 1.0 mph 7.0 mph 77% 0.00 in FEW
09:00 65.7 °F 57.5 °F 30.09 in Calm   4.0 mph 75% 0.00 in FEW
09:15 66.6 °F 57.6 °F 30.10 in Calm   7.0 mph 73% 0.00 in CLR
09:30 67.4 °F 57.7 °F 30.10 in NE 2.0 mph 6.0 mph 71% 0.00 in CLR
09:45 67.7 °F 57.6 °F 30.10 in ENE 3.0 mph 9.0 mph 70% 0.00 in CLR
10:00 68.7 °F 58.1 °F 30.10 in NW 2.0 mph 6.0 mph 69% 0.00 in CLR
10:15 69.8 °F 58.3 °F 30.10 in NNW 2.0 mph 6.0 mph 67% 0.00 in CLR
10:30 70.0 °F 59.4 °F 30.10 in NE 1.0 mph 7.0 mph 69% 0.00 in CLR
10:45 69.9 °F 59.7 °F 30.10 in SW 2.0 mph 6.0 mph 70% 0.00 in CLR
11:00 70.2 °F 60.0 °F 30.10 in NW 1.0 mph 6.0 mph 70% 0.00 in CLR
11:15 70.3 °F 58.8 °F 30.10 in NW 3.0 mph 6.0 mph 67% 0.00 in SCT
11:30 70.1 °F 59.0 °F 30.10 in North 1.0 mph 8.0 mph 68% 0.00 in SCT
11:45 71.3 °F 58.4 °F 30.11 in West 3.0 mph 12.0 mph 64% 0.00 in SCT
12:00 71.5 °F 57.8 °F 30.11 in NW 3.0 mph 10.0 mph 62% 0.00 in SCT
12:15 72.5 °F 56.8 °F 30.11 in North 2.0 mph 8.0 mph 58% 0.00 in BKN
12:30 71.9 °F 56.3 °F 30.11 in WNW 3.0 mph 10.0 mph 58% 0.00 in BKN
12:45 73.2 °F 57.1 °F 30.10 in NW 5.0 mph 7.0 mph 57% 0.00 in BKN
13:00 73.6 °F 56.4 °F 30.10 in Calm   7.0 mph 55% 0.00 in BKN
13:15 73.9 °F 56.2 °F 30.10 in West 2.0 mph 8.0 mph 54% 0.00 in BKN
13:30 73.7 °F 56.0 °F 30.10 in NNW 1.0 mph 9.0 mph 54% 0.00 in BKN
13:45 74.4 °F 55.6 °F 30.10 in NNW 1.0 mph 9.0 mph 52% 0.00 in BKN
14:00 75.0 °F 54.0 °F 30.10 in North 5.0 mph 7.0 mph 48% 0.00 in BKN
14:30 74.4 °F 53.5 °F 30.10 in WNW 1.0 mph 8.0 mph 48% 0.00 in BKN
14:45 74.0 °F 54.8 °F 30.10 in North 1.0 mph 7.0 mph 51% 0.00 in BKN
15:00 75.6 °F 54.6 °F 30.10 in NW 2.0 mph 7.0 mph 48% 0.00 in BKN
15:15 73.5 °F 54.3 °F 30.10 in NNW 1.0 mph 6.0 mph 51% 0.00 in SCT
15:30 73.2 °F 55.0 °F 30.10 in Calm   4.0 mph 53% 0.00 in SCT
15:45 74.0 °F 55.2 °F 30.10 in Calm   3.0 mph 52% 0.00 in SCT
16:00 74.1 °F 54.8 °F 30.10 in Calm   4.0 mph 51% 0.00 in SCT
16:15 73.0 °F 56.4 °F 30.11 in Calm   4.0 mph 56% 0.00 in BKN
16:30 72.8 °F 56.2 °F 30.11 in Calm   2.0 mph 56% 0.00 in BKN
16:45 72.7 °F 57.0 °F 30.12 in Calm   2.0 mph 58% 0.00 in BKN
17:00 72.6 °F 57.0 °F 30.12 in Calm   1.0 mph 58% 0.00 in BKN
17:15 73.9 °F 56.2 °F 30.12 in Calm   5.0 mph 54% 0.00 in BKN
17:30 74.6 °F 54.7 °F 30.12 in Calm   4.0 mph 50% 0.00 in BKN
17:45 74.8 °F 54.4 °F 30.13 in NW 1.0 mph 4.0 mph 49% 0.00 in BKN
18:00 75.2 °F 55.8 °F 30.13 in Calm   3.0 mph 51% 0.00 in BKN
18:15 73.7 °F 57.1 °F 30.13 in Calm   2.0 mph 56% 0.00 in SCT
18:30 72.2 °F 58.0 °F 30.13 in Calm   1.0 mph 61% 0.00 in SCT
18:45 70.0 °F 57.3 °F 30.13 in Calm   1.0 mph 64% 0.00 in SCT
19:00 69.2 °F 57.4 °F 30.13 in Calm     66% 0.00 in SCT
19:15 69.0 °F 57.2 °F 30.14 in Calm     66% 0.00 in SCT
19:30 68.8 °F 57.4 °F 30.14 in Calm     67% 0.00 in SCT
19:45 68.4 °F 56.6 °F 30.15 in Calm     66% 0.00 in SCT
20:00 67.7 °F 56.3 °F 30.15 in Calm     67% 0.00 in SCT
20:15 66.9 °F 56.4 °F 30.16 in Calm   1.0 mph 69% 0.00 in SCT
20:30 66.9 °F 56.8 °F 30.16 in Calm   1.0 mph 70% 0.00 in SCT
20:45 66.8 °F 57.1 °F 30.17 in Calm     71% 0.00 in SCT
21:00 66.4 °F 56.7 °F 30.17 in Calm     71% 0.00 in SCT
21:15 65.8 °F 56.5 °F 30.18 in Calm   1.0 mph 72% 0.00 in SCT
21:30 65.2 °F 56.7 °F 30.17 in Calm     74% 0.00 in SCT
21:45 64.6 °F 56.1 °F 30.18 in Calm     74% 0.00 in SCT
22:00 64.2 °F 55.7 °F 30.18 in Calm     74% 0.00 in SCT
22:15 64.1 °F 55.6 °F 30.18 in Calm     74% 0.00 in FEW
22:30 63.8 °F 55.4 °F 30.19 in Calm     74% 0.00 in FEW
22:45 63.9 °F 55.8 °F 30.19 in Calm     75% 0.00 in FEW
23:00 63.9 °F 55.4 °F 30.20 in Calm     74% 0.00 in FEW
23:30 63.5 °F 55.8 °F 30.20 in Calm   1.0 mph 76% 0.00 in SCT
23:45 62.4 °F 55.5 °F 30.20 in Calm   1.0 mph 78% 0.00 in SCT
TarryTown NY Weather
Compliments of Weather Underground - 1.5 mb